sensor_id;sensor_type;location;lat;lon;timestamp;P1;durP1;ratioP1;P2;durP2;ratioP2
51124;SDS011;37163;55.556;39.108;2023-03-31T00:01:38;5.47;;;2.35;;
51124;SDS011;37163;55.556;39.108;2023-03-31T00:04:09;4.43;;;2.20;;
51124;SDS011;37163;55.556;39.108;2023-03-31T00:06:38;3.85;;;1.75;;
51124;SDS011;37163;55.556;39.108;2023-03-31T00:09:10;4.18;;;2.35;;
51124;SDS011;37163;55.556;39.108;2023-03-31T00:11:40;3.38;;;1.90;;
51124;SDS011;37163;55.556;39.108;2023-03-31T00:14:07;3.20;;;1.85;;
51124;SDS011;37163;55.556;39.108;2023-03-31T00:16:34;4.07;;;2.00;;
51124;SDS011;37163;55.556;39.108;2023-03-31T00:19:01;5.43;;;2.20;;
51124;SDS011;37163;55.556;39.108;2023-03-31T00:21:28;4.30;;;2.10;;
51124;SDS011;37163;55.556;39.108;2023-03-31T00:23:59;4.13;;;2.42;;
51124;SDS011;37163;55.556;39.108;2023-03-31T00:26:26;4.55;;;2.05;;
51124;SDS011;37163;55.556;39.108;2023-03-31T00:28:54;4.57;;;2.28;;
51124;SDS011;37163;55.556;39.108;2023-03-31T00:31:21;4.95;;;2.47;;
51124;SDS011;37163;55.556;39.108;2023-03-31T00:33:48;3.72;;;2.22;;
51124;SDS011;37163;55.556;39.108;2023-03-31T00:36:15;3.97;;;2.10;;
51124;SDS011;37163;55.556;39.108;2023-03-31T00:38:55;4.22;;;2.08;;
51124;SDS011;37163;55.556;39.108;2023-03-31T00:41:27;4.63;;;1.83;;
51124;SDS011;37163;55.556;39.108;2023-03-31T00:46:41;4.75;;;2.28;;
51124;SDS011;37163;55.556;39.108;2023-03-31T00:49:59;6.82;;;2.72;;
51124;SDS011;37163;55.556;39.108;2023-03-31T00:52:09;3.90;;;2.03;;
51124;SDS011;37163;55.556;39.108;2023-03-31T00:54:38;5.15;;;2.33;;
51124;SDS011;37163;55.556;39.108;2023-03-31T00:57:05;3.58;;;1.95;;
51124;SDS011;37163;55.556;39.108;2023-03-31T00:59:39;5.85;;;2.30;;
51124;SDS011;37163;55.556;39.108;2023-03-31T01:02:12;5.80;;;2.75;;
51124;SDS011;37163;55.556;39.108;2023-03-31T01:04:43;4.95;;;2.45;;
51124;SDS011;37163;55.556;39.108;2023-03-31T01:09:44;3.75;;;2.17;;
51124;SDS011;37163;55.556;39.108;2023-03-31T01:12:14;4.53;;;2.60;;
51124;SDS011;37163;55.556;39.108;2023-03-31T01:14:42;5.72;;;2.25;;
51124;SDS011;37163;55.556;39.108;2023-03-31T01:17:08;4.90;;;2.10;;
51124;SDS011;37163;55.556;39.108;2023-03-31T01:28:30;4.82;;;2.10;;
51124;SDS011;37163;55.556;39.108;2023-03-31T01:42:38;3.35;;;1.67;;
51124;SDS011;37163;55.556;39.108;2023-03-31T01:48:03;4.72;;;2.28;;
51124;SDS011;37163;55.556;39.108;2023-03-31T01:58:58;3.67;;;1.75;;
51124;SDS011;37163;55.556;39.108;2023-03-31T02:01:33;3.63;;;1.70;;
51124;SDS011;37163;55.556;39.108;2023-03-31T02:04:12;3.22;;;1.77;;
51124;SDS011;37163;55.556;39.108;2023-03-31T02:06:42;3.67;;;1.92;;
51124;SDS011;37163;55.556;39.108;2023-03-31T02:09:13;3.60;;;1.85;;
51124;SDS011;37163;55.556;39.108;2023-03-31T02:11:42;3.38;;;1.40;;
51124;SDS011;37163;55.556;39.108;2023-03-31T02:14:10;3.85;;;1.77;;
51124;SDS011;37163;55.556;39.108;2023-03-31T02:16:58;3.60;;;1.88;;
51124;SDS011;37163;55.556;39.108;2023-03-31T02:19:28;3.65;;;1.60;;
51124;SDS011;37163;55.556;39.108;2023-03-31T02:21:58;3.53;;;1.63;;
51124;SDS011;37163;55.556;39.108;2023-03-31T02:24:26;4.32;;;2.15;;
51124;SDS011;37163;55.556;39.108;2023-03-31T02:26:55;4.90;;;2.03;;
51124;SDS011;37163;55.556;39.108;2023-03-31T02:29:24;4.53;;;1.73;;
51124;SDS011;37163;55.556;39.108;2023-03-31T02:31:56;4.10;;;1.85;;
51124;SDS011;37163;55.556;39.108;2023-03-31T02:34:36;3.40;;;1.77;;
51124;SDS011;37163;55.556;39.108;2023-03-31T02:37:03;4.35;;;1.80;;
51124;SDS011;37163;55.556;39.108;2023-03-31T02:39:30;3.47;;;1.65;;
51124;SDS011;37163;55.556;39.108;2023-03-31T02:41:59;4.07;;;1.73;;
51124;SDS011;37163;55.556;39.108;2023-03-31T02:44:35;3.55;;;1.52;;
51124;SDS011;37163;55.556;39.108;2023-03-31T02:47:02;3.00;;;1.50;;
51124;SDS011;37163;55.556;39.108;2023-03-31T02:49:34;3.75;;;1.75;;
51124;SDS011;37163;55.556;39.108;2023-03-31T02:52:08;4.10;;;2.03;;
51124;SDS011;37163;55.556;39.108;2023-03-31T03:00:35;5.15;;;2.22;;
51124;SDS011;37163;55.556;39.108;2023-03-31T03:03:22;4.43;;;1.65;;
51124;SDS011;37163;55.556;39.108;2023-03-31T03:06:28;4.85;;;2.80;;
51124;SDS011;37163;55.556;39.108;2023-03-31T03:12:17;3.15;;;1.50;;
51124;SDS011;37163;55.556;39.108;2023-03-31T03:15:01;4.85;;;2.08;;
51124;SDS011;37163;55.556;39.108;2023-03-31T03:17:41;4.32;;;1.88;;
51124;SDS011;37163;55.556;39.108;2023-03-31T03:20:11;3.42;;;1.50;;
51124;SDS011;37163;55.556;39.108;2023-03-31T03:22:39;4.55;;;1.88;;
51124;SDS011;37163;55.556;39.108;2023-03-31T03:25:06;4.22;;;2.00;;
51124;SDS011;37163;55.556;39.108;2023-03-31T03:27:36;3.42;;;2.10;;
51124;SDS011;37163;55.556;39.108;2023-03-31T03:30:04;3.72;;;1.67;;
51124;SDS011;37163;55.556;39.108;2023-03-31T03:32:31;3.95;;;1.92;;
51124;SDS011;37163;55.556;39.108;2023-03-31T03:34:58;4.75;;;1.92;;
51124;SDS011;37163;55.556;39.108;2023-03-31T03:37:25;3.45;;;1.70;;
51124;SDS011;37163;55.556;39.108;2023-03-31T03:39:52;5.05;;;2.50;;
51124;SDS011;37163;55.556;39.108;2023-03-31T03:42:18;4.15;;;2.05;;
51124;SDS011;37163;55.556;39.108;2023-03-31T03:44:45;4.20;;;1.80;;
51124;SDS011;37163;55.556;39.108;2023-03-31T03:47:11;5.22;;;2.40;;
51124;SDS011;37163;55.556;39.108;2023-03-31T03:49:38;5.07;;;1.90;;
51124;SDS011;37163;55.556;39.108;2023-03-31T03:52:05;3.83;;;2.10;;
51124;SDS011;37163;55.556;39.108;2023-03-31T03:54:31;5.13;;;2.28;;
51124;SDS011;37163;55.556;39.108;2023-03-31T03:56:57;6.57;;;2.35;;
51124;SDS011;37163;55.556;39.108;2023-03-31T03:59:23;6.15;;;2.15;;
51124;SDS011;37163;55.556;39.108;2023-03-31T04:01:50;5.35;;;2.35;;
51124;SDS011;37163;55.556;39.108;2023-03-31T04:04:17;4.82;;;2.35;;
51124;SDS011;37163;55.556;39.108;2023-03-31T04:06:44;7.53;;;2.90;;
51124;SDS011;37163;55.556;39.108;2023-03-31T04:09:10;4.50;;;2.47;;
51124;SDS011;37163;55.556;39.108;2023-03-31T04:11:36;6.50;;;2.63;;
51124;SDS011;37163;55.556;39.108;2023-03-31T04:14:02;4.05;;;1.98;;
51124;SDS011;37163;55.556;39.108;2023-03-31T04:16:29;4.82;;;2.20;;
51124;SDS011;37163;55.556;39.108;2023-03-31T04:18:56;6.82;;;2.58;;
51124;SDS011;37163;55.556;39.108;2023-03-31T04:21:23;4.63;;;2.25;;
51124;SDS011;37163;55.556;39.108;2023-03-31T04:23:51;5.35;;;2.40;;
51124;SDS011;37163;55.556;39.108;2023-03-31T04:26:27;5.35;;;2.30;;
51124;SDS011;37163;55.556;39.108;2023-03-31T04:29:04;8.35;;;3.92;;
51124;SDS011;37163;55.556;39.108;2023-03-31T04:31:32;5.18;;;2.78;;
51124;SDS011;37163;55.556;39.108;2023-03-31T04:34:03;5.13;;;2.47;;
51124;SDS011;37163;55.556;39.108;2023-03-31T04:36:31;6.68;;;2.47;;
51124;SDS011;37163;55.556;39.108;2023-03-31T04:38:58;5.07;;;2.42;;
51124;SDS011;37163;55.556;39.108;2023-03-31T04:41:26;6.25;;;2.50;;
51124;SDS011;37163;55.556;39.108;2023-03-31T04:43:52;5.35;;;2.53;;
51124;SDS011;37163;55.556;39.108;2023-03-31T04:46:19;5.88;;;2.63;;
51124;SDS011;37163;55.556;39.108;2023-03-31T04:48:46;6.15;;;2.50;;
51124;SDS011;37163;55.556;39.108;2023-03-31T04:51:12;7.28;;;3.67;;
51124;SDS011;37163;55.556;39.108;2023-03-31T04:53:42;16.83;;;7.68;;
51124;SDS011;37163;55.556;39.108;2023-03-31T04:56:08;17.45;;;7.22;;
51124;SDS011;37163;55.556;39.108;2023-03-31T04:58:35;17.20;;;7.70;;
51124;SDS011;37163;55.556;39.108;2023-03-31T05:01:01;10.60;;;4.38;;
51124;SDS011;37163;55.556;39.108;2023-03-31T05:03:27;11.95;;;5.07;;
51124;SDS011;37163;55.556;39.108;2023-03-31T05:05:54;14.32;;;7.25;;
51124;SDS011;37163;55.556;39.108;2023-03-31T05:08:20;6.90;;;3.17;;
51124;SDS011;37163;55.556;39.108;2023-03-31T05:10:46;6.13;;;3.40;;
51124;SDS011;37163;55.556;39.108;2023-03-31T05:13:12;4.72;;;2.25;;
51124;SDS011;37163;55.556;39.108;2023-03-31T05:15:39;6.72;;;3.75;;
51124;SDS011;37163;55.556;39.108;2023-03-31T05:18:06;6.03;;;2.65;;
51124;SDS011;37163;55.556;39.108;2023-03-31T05:20:32;7.07;;;3.33;;
51124;SDS011;37163;55.556;39.108;2023-03-31T05:22:58;8.50;;;3.17;;
51124;SDS011;37163;55.556;39.108;2023-03-31T05:25:25;7.82;;;3.45;;
51124;SDS011;37163;55.556;39.108;2023-03-31T05:27:57;6.70;;;3.08;;
51124;SDS011;37163;55.556;39.108;2023-03-31T05:30:24;6.50;;;2.65;;
51124;SDS011;37163;55.556;39.108;2023-03-31T05:32:51;4.65;;;2.47;;
51124;SDS011;37163;55.556;39.108;2023-03-31T05:35:17;7.28;;;2.90;;
51124;SDS011;37163;55.556;39.108;2023-03-31T05:37:44;6.68;;;3.17;;
51124;SDS011;37163;55.556;39.108;2023-03-31T05:40:10;6.97;;;3.97;;
51124;SDS011;37163;55.556;39.108;2023-03-31T05:42:38;7.07;;;3.30;;
51124;SDS011;37163;55.556;39.108;2023-03-31T05:45:04;8.63;;;4.28;;
51124;SDS011;37163;55.556;39.108;2023-03-31T05:47:31;5.95;;;3.00;;
51124;SDS011;37163;55.556;39.108;2023-03-31T05:49:57;6.97;;;3.50;;
51124;SDS011;37163;55.556;39.108;2023-03-31T05:52:24;5.93;;;3.40;;
51124;SDS011;37163;55.556;39.108;2023-03-31T05:54:50;7.13;;;3.53;;
51124;SDS011;37163;55.556;39.108;2023-03-31T05:57:17;5.50;;;2.58;;
51124;SDS011;37163;55.556;39.108;2023-03-31T05:59:43;6.18;;;3.08;;
51124;SDS011;37163;55.556;39.108;2023-03-31T06:02:11;5.68;;;3.40;;
51124;SDS011;37163;55.556;39.108;2023-03-31T06:04:38;5.93;;;2.92;;
51124;SDS011;37163;55.556;39.108;2023-03-31T06:07:04;4.07;;;2.58;;
51124;SDS011;37163;55.556;39.108;2023-03-31T06:09:30;6.25;;;3.08;;
51124;SDS011;37163;55.556;39.108;2023-03-31T06:11:57;6.55;;;2.70;;
51124;SDS011;37163;55.556;39.108;2023-03-31T06:14:23;6.90;;;2.83;;
51124;SDS011;37163;55.556;39.108;2023-03-31T06:16:50;5.78;;;2.70;;
51124;SDS011;37163;55.556;39.108;2023-03-31T06:19:16;5.20;;;2.50;;
51124;SDS011;37163;55.556;39.108;2023-03-31T06:21:43;5.45;;;2.80;;
51124;SDS011;37163;55.556;39.108;2023-03-31T06:24:09;5.85;;;3.22;;
51124;SDS011;37163;55.556;39.108;2023-03-31T06:26:35;7.07;;;3.20;;
51124;SDS011;37163;55.556;39.108;2023-03-31T06:29:01;7.93;;;4.57;;
51124;SDS011;37163;55.556;39.108;2023-03-31T06:31:28;5.32;;;2.97;;
51124;SDS011;37163;55.556;39.108;2023-03-31T06:33:54;6.72;;;3.25;;
51124;SDS011;37163;55.556;39.108;2023-03-31T06:36:21;6.00;;;3.10;;
51124;SDS011;37163;55.556;39.108;2023-03-31T06:38:48;4.80;;;2.92;;
51124;SDS011;37163;55.556;39.108;2023-03-31T06:41:16;7.32;;;3.33;;
51124;SDS011;37163;55.556;39.108;2023-03-31T06:43:43;6.05;;;2.88;;
51124;SDS011;37163;55.556;39.108;2023-03-31T06:46:09;5.78;;;2.92;;
51124;SDS011;37163;55.556;39.108;2023-03-31T06:48:36;6.93;;;3.58;;
51124;SDS011;37163;55.556;39.108;2023-03-31T06:51:02;6.38;;;3.35;;
51124;SDS011;37163;55.556;39.108;2023-03-31T06:53:30;6.70;;;2.85;;
51124;SDS011;37163;55.556;39.108;2023-03-31T06:55:57;5.18;;;2.30;;
51124;SDS011;37163;55.556;39.108;2023-03-31T06:58:23;7.20;;;3.53;;
51124;SDS011;37163;55.556;39.108;2023-03-31T07:00:49;6.50;;;3.60;;
51124;SDS011;37163;55.556;39.108;2023-03-31T07:03:17;5.78;;;3.00;;
51124;SDS011;37163;55.556;39.108;2023-03-31T07:06:05;5.45;;;2.90;;
51124;SDS011;37163;55.556;39.108;2023-03-31T07:08:32;5.53;;;3.03;;
51124;SDS011;37163;55.556;39.108;2023-03-31T07:10:58;7.85;;;3.95;;
51124;SDS011;37163;55.556;39.108;2023-03-31T07:13:26;5.53;;;2.90;;
51124;SDS011;37163;55.556;39.108;2023-03-31T07:15:53;7.40;;;3.17;;
51124;SDS011;37163;55.556;39.108;2023-03-31T07:18:20;7.30;;;2.83;;
51124;SDS011;37163;55.556;39.108;2023-03-31T07:20:50;6.88;;;2.95;;
51124;SDS011;37163;55.556;39.108;2023-03-31T07:23:17;7.15;;;2.97;;
51124;SDS011;37163;55.556;39.108;2023-03-31T07:25:45;6.97;;;3.22;;
51124;SDS011;37163;55.556;39.108;2023-03-31T07:28:12;6.13;;;4.07;;
51124;SDS011;37163;55.556;39.108;2023-03-31T07:30:38;9.50;;;4.60;;
51124;SDS011;37163;55.556;39.108;2023-03-31T07:33:05;9.00;;;4.47;;
51124;SDS011;37163;55.556;39.108;2023-03-31T07:35:32;9.30;;;3.92;;
51124;SDS011;37163;55.556;39.108;2023-03-31T07:37:59;7.82;;;4.10;;
51124;SDS011;37163;55.556;39.108;2023-03-31T07:40:26;8.10;;;4.30;;
51124;SDS011;37163;55.556;39.108;2023-03-31T07:42:53;9.75;;;4.70;;
51124;SDS011;37163;55.556;39.108;2023-03-31T07:45:21;7.95;;;4.57;;
51124;SDS011;37163;55.556;39.108;2023-03-31T07:47:48;8.73;;;4.63;;
51124;SDS011;37163;55.556;39.108;2023-03-31T07:50:15;10.50;;;3.72;;
51124;SDS011;37163;55.556;39.108;2023-03-31T07:52:42;9.38;;;5.28;;
51124;SDS011;37163;55.556;39.108;2023-03-31T07:55:09;8.45;;;4.72;;
51124;SDS011;37163;55.556;39.108;2023-03-31T07:57:35;8.52;;;3.50;;
51124;SDS011;37163;55.556;39.108;2023-03-31T08:00:03;8.80;;;4.07;;
51124;SDS011;37163;55.556;39.108;2023-03-31T08:02:38;7.07;;;3.80;;
51124;SDS011;37163;55.556;39.108;2023-03-31T08:05:06;5.55;;;3.40;;
51124;SDS011;37163;55.556;39.108;2023-03-31T08:07:33;7.32;;;3.38;;
51124;SDS011;37163;55.556;39.108;2023-03-31T08:10:01;7.05;;;4.13;;
51124;SDS011;37163;55.556;39.108;2023-03-31T08:12:29;7.88;;;4.00;;
51124;SDS011;37163;55.556;39.108;2023-03-31T08:14:55;7.25;;;4.03;;
51124;SDS011;37163;55.556;39.108;2023-03-31T08:17:21;7.80;;;4.13;;
51124;SDS011;37163;55.556;39.108;2023-03-31T08:19:47;8.73;;;3.70;;
51124;SDS011;37163;55.556;39.108;2023-03-31T08:22:15;7.32;;;3.75;;
51124;SDS011;37163;55.556;39.108;2023-03-31T08:24:42;9.55;;;4.20;;
51124;SDS011;37163;55.556;39.108;2023-03-31T08:27:08;7.32;;;4.57;;
51124;SDS011;37163;55.556;39.108;2023-03-31T08:29:34;7.43;;;3.90;;
51124;SDS011;37163;55.556;39.108;2023-03-31T08:32:00;8.65;;;5.00;;
51124;SDS011;37163;55.556;39.108;2023-03-31T08:34:26;8.70;;;4.15;;
51124;SDS011;37163;55.556;39.108;2023-03-31T08:36:53;9.15;;;4.63;;
51124;SDS011;37163;55.556;39.108;2023-03-31T08:39:19;7.80;;;4.55;;
51124;SDS011;37163;55.556;39.108;2023-03-31T08:41:49;9.75;;;4.93;;
51124;SDS011;37163;55.556;39.108;2023-03-31T08:47:06;9.23;;;4.38;;
51124;SDS011;37163;55.556;39.108;2023-03-31T08:49:40;8.35;;;4.70;;
51124;SDS011;37163;55.556;39.108;2023-03-31T08:52:11;8.02;;;3.72;;
51124;SDS011;37163;55.556;39.108;2023-03-31T08:54:41;10.18;;;3.65;;
51124;SDS011;37163;55.556;39.108;2023-03-31T08:57:11;10.27;;;4.53;;
51124;SDS011;37163;55.556;39.108;2023-03-31T08:59:42;7.80;;;4.43;;
51124;SDS011;37163;55.556;39.108;2023-03-31T09:11:02;7.93;;;4.57;;
51124;SDS011;37163;55.556;39.108;2023-03-31T09:14:02;9.30;;;4.90;;
51124;SDS011;37163;55.556;39.108;2023-03-31T09:19:23;8.98;;;4.45;;
51124;SDS011;37163;55.556;39.108;2023-03-31T09:22:03;7.10;;;4.20;;
51124;SDS011;37163;55.556;39.108;2023-03-31T09:24:44;7.25;;;3.83;;
51124;SDS011;37163;55.556;39.108;2023-03-31T09:27:45;8.48;;;5.15;;
51124;SDS011;37163;55.556;39.108;2023-03-31T09:30:20;9.05;;;4.95;;
51124;SDS011;37163;55.556;39.108;2023-03-31T09:32:48;8.55;;;4.85;;
51124;SDS011;37163;55.556;39.108;2023-03-31T09:35:22;8.25;;;4.40;;
51124;SDS011;37163;55.556;39.108;2023-03-31T09:37:53;9.02;;;4.15;;
51124;SDS011;37163;55.556;39.108;2023-03-31T09:40:21;8.77;;;4.68;;
51124;SDS011;37163;55.556;39.108;2023-03-31T09:42:59;8.38;;;4.35;;
51124;SDS011;37163;55.556;39.108;2023-03-31T09:45:29;7.47;;;4.15;;
51124;SDS011;37163;55.556;39.108;2023-03-31T09:50:53;7.07;;;4.30;;
51124;SDS011;37163;55.556;39.108;2023-03-31T09:53:42;8.98;;;4.90;;
51124;SDS011;37163;55.556;39.108;2023-03-31T09:56:12;9.05;;;4.55;;
51124;SDS011;37163;55.556;39.108;2023-03-31T09:58:42;8.05;;;4.57;;
51124;SDS011;37163;55.556;39.108;2023-03-31T10:01:11;9.77;;;5.15;;
51124;SDS011;37163;55.556;39.108;2023-03-31T10:03:52;9.23;;;4.75;;
51124;SDS011;37163;55.556;39.108;2023-03-31T10:06:19;9.10;;;4.88;;
51124;SDS011;37163;55.556;39.108;2023-03-31T10:08:48;9.30;;;4.70;;
51124;SDS011;37163;55.556;39.108;2023-03-31T10:11:19;8.98;;;4.95;;
51124;SDS011;37163;55.556;39.108;2023-03-31T10:13:49;8.48;;;4.55;;
51124;SDS011;37163;55.556;39.108;2023-03-31T10:16:31;8.90;;;4.85;;
51124;SDS011;37163;55.556;39.108;2023-03-31T10:19:20;10.25;;;5.00;;
51124;SDS011;37163;55.556;39.108;2023-03-31T10:21:55;10.00;;;5.25;;
51124;SDS011;37163;55.556;39.108;2023-03-31T10:24:24;8.27;;;4.80;;
51124;SDS011;37163;55.556;39.108;2023-03-31T10:26:53;8.32;;;5.28;;
51124;SDS011;37163;55.556;39.108;2023-03-31T10:29:22;8.63;;;5.72;;
51124;SDS011;37163;55.556;39.108;2023-03-31T10:31:54;9.23;;;4.63;;
51124;SDS011;37163;55.556;39.108;2023-03-31T10:34:20;10.55;;;6.25;;
51124;SDS011;37163;55.556;39.108;2023-03-31T10:36:49;14.40;;;6.72;;
51124;SDS011;37163;55.556;39.108;2023-03-31T10:39:17;11.10;;;5.78;;
51124;SDS011;37163;55.556;39.108;2023-03-31T10:41:48;10.25;;;4.93;;
51124;SDS011;37163;55.556;39.108;2023-03-31T10:44:33;8.77;;;5.03;;
51124;SDS011;37163;55.556;39.108;2023-03-31T10:47:04;10.02;;;5.07;;
51124;SDS011;37163;55.556;39.108;2023-03-31T10:49:41;8.40;;;4.90;;
51124;SDS011;37163;55.556;39.108;2023-03-31T10:54:50;11.70;;;6.88;;
51124;SDS011;37163;55.556;39.108;2023-03-31T10:57:30;15.52;;;7.55;;
51124;SDS011;37163;55.556;39.108;2023-03-31T11:02:46;14.02;;;5.63;;
51124;SDS011;37163;55.556;39.108;2023-03-31T11:17:08;10.55;;;5.03;;
51124;SDS011;37163;55.556;39.108;2023-03-31T11:25:36;11.05;;;5.45;;
51124;SDS011;37163;55.556;39.108;2023-03-31T11:39:07;11.38;;;6.10;;
51124;SDS011;37163;55.556;39.108;2023-03-31T11:42:09;10.40;;;5.35;;
51124;SDS011;37163;55.556;39.108;2023-03-31T11:44:42;12.02;;;4.82;;
51124;SDS011;37163;55.556;39.108;2023-03-31T11:47:12;13.75;;;5.22;;
51124;SDS011;37163;55.556;39.108;2023-03-31T11:49:44;11.95;;;5.32;;
51124;SDS011;37163;55.556;39.108;2023-03-31T11:52:33;12.73;;;5.63;;
51124;SDS011;37163;55.556;39.108;2023-03-31T11:55:10;10.25;;;5.10;;
51124;SDS011;37163;55.556;39.108;2023-03-31T11:57:41;9.40;;;4.22;;
51124;SDS011;37163;55.556;39.108;2023-03-31T12:00:22;11.48;;;5.03;;
51124;SDS011;37163;55.556;39.108;2023-03-31T12:02:58;8.10;;;4.75;;
51124;SDS011;37163;55.556;39.108;2023-03-31T12:05:27;10.82;;;5.50;;
51124;SDS011;37163;55.556;39.108;2023-03-31T12:08:01;9.55;;;4.75;;
51124;SDS011;37163;55.556;39.108;2023-03-31T12:13:10;8.85;;;4.72;;
51124;SDS011;37163;55.556;39.108;2023-03-31T12:15:53;8.82;;;4.88;;
51124;SDS011;37163;55.556;39.108;2023-03-31T12:18:26;8.63;;;4.30;;
51124;SDS011;37163;55.556;39.108;2023-03-31T12:23:28;11.07;;;4.80;;
51124;SDS011;37163;55.556;39.108;2023-03-31T12:28:27;10.77;;;4.78;;
51124;SDS011;37163;55.556;39.108;2023-03-31T12:30:56;10.57;;;5.72;;
51124;SDS011;37163;55.556;39.108;2023-03-31T12:33:41;11.07;;;5.38;;
51124;SDS011;37163;55.556;39.108;2023-03-31T12:39:11;9.63;;;4.07;;
51124;SDS011;37163;55.556;39.108;2023-03-31T12:44:25;8.82;;;4.55;;
51124;SDS011;37163;55.556;39.108;2023-03-31T12:49:32;8.95;;;4.68;;
51124;SDS011;37163;55.556;39.108;2023-03-31T12:55:15;8.45;;;4.25;;
51124;SDS011;37163;55.556;39.108;2023-03-31T12:57:50;10.88;;;4.55;;
51124;SDS011;37163;55.556;39.108;2023-03-31T13:02:48;7.35;;;4.20;;
51124;SDS011;37163;55.556;39.108;2023-03-31T13:05:48;10.65;;;5.55;;
51124;SDS011;37163;55.556;39.108;2023-03-31T13:08:46;9.75;;;4.85;;
51124;SDS011;37163;55.556;39.108;2023-03-31T13:11:14;9.35;;;3.78;;
51124;SDS011;37163;55.556;39.108;2023-03-31T13:13:56;7.93;;;4.40;;
51124;SDS011;37163;55.556;39.108;2023-03-31T13:16:30;8.07;;;4.10;;
51124;SDS011;37163;55.556;39.108;2023-03-31T13:18:58;8.05;;;4.40;;
51124;SDS011;37163;55.556;39.108;2023-03-31T13:21:25;6.95;;;4.22;;
51124;SDS011;37163;55.556;39.108;2023-03-31T13:23:51;9.25;;;5.20;;
51124;SDS011;37163;55.556;39.108;2023-03-31T13:26:37;13.00;;;5.78;;
51124;SDS011;37163;55.556;39.108;2023-03-31T13:37:26;8.07;;;4.47;;
51124;SDS011;37163;55.556;39.108;2023-03-31T13:53:52;12.52;;;6.15;;
51124;SDS011;37163;55.556;39.108;2023-03-31T14:01:40;10.40;;;6.10;;
51124;SDS011;37163;55.556;39.108;2023-03-31T14:07:20;12.52;;;6.38;;
51124;SDS011;37163;55.556;39.108;2023-03-31T14:09:52;11.75;;;6.05;;
51124;SDS011;37163;55.556;39.108;2023-03-31T14:12:29;12.10;;;6.93;;
51124;SDS011;37163;55.556;39.108;2023-03-31T14:14:58;14.60;;;6.97;;
51124;SDS011;37163;55.556;39.108;2023-03-31T14:17:26;17.27;;;8.05;;
51124;SDS011;37163;55.556;39.108;2023-03-31T14:32:45;7.53;;;4.55;;
51124;SDS011;37163;55.556;39.108;2023-03-31T14:35:31;9.05;;;4.95;;
51124;SDS011;37163;55.556;39.108;2023-03-31T14:38:10;8.40;;;4.75;;
51124;SDS011;37163;55.556;39.108;2023-03-31T14:40:44;10.15;;;5.22;;
51124;SDS011;37163;55.556;39.108;2023-03-31T14:43:19;8.80;;;4.88;;
51124;SDS011;37163;55.556;39.108;2023-03-31T14:48:25;6.15;;;3.25;;
51124;SDS011;37163;55.556;39.108;2023-03-31T14:50:56;8.27;;;3.45;;
51124;SDS011;37163;55.556;39.108;2023-03-31T14:53:24;7.38;;;3.38;;
51124;SDS011;37163;55.556;39.108;2023-03-31T14:55:52;7.15;;;3.55;;
51124;SDS011;37163;55.556;39.108;2023-03-31T14:58:29;6.10;;;3.28;;
51124;SDS011;37163;55.556;39.108;2023-03-31T15:00:59;7.75;;;2.97;;
51124;SDS011;37163;55.556;39.108;2023-03-31T15:03:29;7.57;;;3.63;;
51124;SDS011;37163;55.556;39.108;2023-03-31T15:05:57;6.43;;;2.92;;
51124;SDS011;37163;55.556;39.108;2023-03-31T15:08:24;6.13;;;2.65;;
51124;SDS011;37163;55.556;39.108;2023-03-31T15:10:51;6.90;;;3.25;;
51124;SDS011;37163;55.556;39.108;2023-03-31T15:13:27;6.65;;;3.10;;
51124;SDS011;37163;55.556;39.108;2023-03-31T15:15:59;5.70;;;3.10;;
51124;SDS011;37163;55.556;39.108;2023-03-31T15:18:26;6.10;;;2.80;;
51124;SDS011;37163;55.556;39.108;2023-03-31T15:20:52;6.10;;;2.80;;
51124;SDS011;37163;55.556;39.108;2023-03-31T15:23:21;6.97;;;2.83;;
51124;SDS011;37163;55.556;39.108;2023-03-31T15:28:36;5.93;;;2.50;;
51124;SDS011;37163;55.556;39.108;2023-03-31T15:31:04;5.43;;;2.85;;
51124;SDS011;37163;55.556;39.108;2023-03-31T15:33:34;6.60;;;3.03;;
51124;SDS011;37163;55.556;39.108;2023-03-31T15:36:12;5.90;;;2.50;;
51124;SDS011;37163;55.556;39.108;2023-03-31T15:38:38;5.55;;;2.67;;
51124;SDS011;37163;55.556;39.108;2023-03-31T15:41:12;6.15;;;3.17;;
51124;SDS011;37163;55.556;39.108;2023-03-31T15:46:07;5.05;;;2.70;;
51124;SDS011;37163;55.556;39.108;2023-03-31T15:48:37;7.78;;;2.83;;
51124;SDS011;37163;55.556;39.108;2023-03-31T15:51:19;6.35;;;3.30;;
51124;SDS011;37163;55.556;39.108;2023-03-31T15:53:56;6.13;;;2.60;;
51124;SDS011;37163;55.556;39.108;2023-03-31T15:56:23;5.32;;;2.88;;
51124;SDS011;37163;55.556;39.108;2023-03-31T15:58:58;5.88;;;3.40;;
51124;SDS011;37163;55.556;39.108;2023-03-31T16:01:30;6.10;;;2.92;;
51124;SDS011;37163;55.556;39.108;2023-03-31T16:03:59;7.80;;;4.25;;
51124;SDS011;37163;55.556;39.108;2023-03-31T16:06:35;7.10;;;3.33;;
51124;SDS011;37163;55.556;39.108;2023-03-31T16:09:10;9.90;;;3.45;;
51124;SDS011;37163;55.556;39.108;2023-03-31T16:11:52;4.50;;;2.58;;
51124;SDS011;37163;55.556;39.108;2023-03-31T16:14:37;5.95;;;2.60;;
51124;SDS011;37163;55.556;39.108;2023-03-31T16:17:21;5.95;;;2.58;;
51124;SDS011;37163;55.556;39.108;2023-03-31T16:19:56;5.43;;;2.67;;
51124;SDS011;37163;55.556;39.108;2023-03-31T16:22:28;5.63;;;2.63;;
51124;SDS011;37163;55.556;39.108;2023-03-31T16:24:58;6.40;;;2.90;;
51124;SDS011;37163;55.556;39.108;2023-03-31T16:27:24;5.88;;;2.97;;
51124;SDS011;37163;55.556;39.108;2023-03-31T16:30:03;5.63;;;2.60;;
51124;SDS011;37163;55.556;39.108;2023-03-31T16:32:33;5.28;;;2.90;;
51124;SDS011;37163;55.556;39.108;2023-03-31T16:35:01;6.43;;;3.20;;
51124;SDS011;37163;55.556;39.108;2023-03-31T16:37:29;5.68;;;2.90;;
51124;SDS011;37163;55.556;39.108;2023-03-31T16:39:56;7.32;;;3.30;;
51124;SDS011;37163;55.556;39.108;2023-03-31T16:42:23;5.38;;;3.17;;
51124;SDS011;37163;55.556;39.108;2023-03-31T16:44:49;5.20;;;2.65;;
51124;SDS011;37163;55.556;39.108;2023-03-31T16:47:16;6.88;;;3.50;;
51124;SDS011;37163;55.556;39.108;2023-03-31T16:49:42;8.00;;;4.13;;
51124;SDS011;37163;55.556;39.108;2023-03-31T16:52:09;7.68;;;3.63;;
51124;SDS011;37163;55.556;39.108;2023-03-31T16:54:36;8.75;;;4.22;;
51124;SDS011;37163;55.556;39.108;2023-03-31T16:57:03;6.95;;;3.85;;
51124;SDS011;37163;55.556;39.108;2023-03-31T16:59:29;9.68;;;4.85;;
51124;SDS011;37163;55.556;39.108;2023-03-31T17:01:56;9.38;;;4.57;;
51124;SDS011;37163;55.556;39.108;2023-03-31T17:04:23;8.82;;;4.85;;
51124;SDS011;37163;55.556;39.108;2023-03-31T17:06:50;12.35;;;5.60;;
51124;SDS011;37163;55.556;39.108;2023-03-31T17:09:17;9.20;;;4.82;;
51124;SDS011;37163;55.556;39.108;2023-03-31T17:11:43;9.88;;;4.78;;
51124;SDS011;37163;55.556;39.108;2023-03-31T17:14:10;8.77;;;4.95;;
51124;SDS011;37163;55.556;39.108;2023-03-31T17:16:57;10.00;;;5.68;;
51124;SDS011;37163;55.556;39.108;2023-03-31T17:19:24;9.57;;;6.15;;
51124;SDS011;37163;55.556;39.108;2023-03-31T17:21:52;16.33;;;7.97;;
51124;SDS011;37163;55.556;39.108;2023-03-31T17:24:19;16.17;;;8.52;;
51124;SDS011;37163;55.556;39.108;2023-03-31T17:26:46;16.77;;;9.02;;
51124;SDS011;37163;55.556;39.108;2023-03-31T17:29:13;17.20;;;8.95;;
51124;SDS011;37163;55.556;39.108;2023-03-31T17:31:39;18.67;;;10.48;;
51124;SDS011;37163;55.556;39.108;2023-03-31T17:34:06;19.08;;;10.13;;
51124;SDS011;37163;55.556;39.108;2023-03-31T17:36:32;20.52;;;9.35;;
51124;SDS011;37163;55.556;39.108;2023-03-31T17:38:58;16.80;;;9.27;;
51124;SDS011;37163;55.556;39.108;2023-03-31T17:41:25;15.13;;;9.02;;
51124;SDS011;37163;55.556;39.108;2023-03-31T17:43:54;12.02;;;6.30;;